createdAt,value
2019-01-23T00:01:28.601Z,60.27
2019-01-23T00:03:57.702Z,60.13
2019-01-23T00:06:26.609Z,59.63
2019-01-23T00:08:54.841Z,56.77
2019-01-23T00:11:23.080Z,59.63
2019-01-23T00:13:51.355Z,53.43
2019-01-23T00:16:19.584Z,62.10
2019-01-23T00:18:47.849Z,61.43
2019-01-23T00:21:16.118Z,56.67
2019-01-23T00:23:44.322Z,53.60
2019-01-23T00:26:12.568Z,60.80
2019-01-23T00:28:42.392Z,65.17
2019-01-23T00:31:09.017Z,59.30
2019-01-23T00:33:37.240Z,58.63
2019-01-23T00:36:06.272Z,55.73
2019-01-23T00:38:35.186Z,63.27
2019-01-23T00:41:03.445Z,58.50
2019-01-23T00:43:31.710Z,56.03
2019-01-23T00:46:00.038Z,53.97
2019-01-23T00:48:28.276Z,62.23
2019-01-23T00:50:56.542Z,58.07
2019-01-23T00:53:24.777Z,54.40
2019-01-23T00:55:53.139Z,60.50
2019-01-23T00:58:21.421Z,53.57
2019-01-23T01:00:50.235Z,56.60
2019-01-23T01:03:18.474Z,56.10
2019-01-23T01:05:46.757Z,54.43
2019-01-23T01:08:15.670Z,54.47
2019-01-23T01:10:43.902Z,55.33
2019-01-23T01:13:12.158Z,51.43
2019-01-23T01:15:41.398Z,53.93
2019-01-23T01:18:09.600Z,51.83
2019-01-23T01:20:37.907Z,51.33
2019-01-23T01:23:06.214Z,54.60
2019-01-23T01:25:34.447Z,54.70
2019-01-23T01:28:02.817Z,50.20
2019-01-23T01:30:31.111Z,53.90
2019-01-23T01:32:59.494Z,51.73
2019-01-23T01:35:27.734Z,50.67
2019-01-23T01:37:55.963Z,52.23
2019-01-23T01:40:25.183Z,57.40
2019-01-23T01:42:53.405Z,48.33
2019-01-23T01:45:21.693Z,54.73
2019-01-23T01:47:50.022Z,53.87
2019-01-23T01:50:19.957Z,56.00
2019-01-23T01:52:48.266Z,53.50
2019-01-23T01:55:16.516Z,55.60
2019-01-23T01:57:44.765Z,50.53
2019-01-23T02:00:17.114Z,55.47
2019-01-23T02:02:45.365Z,52.77
2019-01-23T02:05:13.708Z,55.67
2019-01-23T02:07:41.979Z,51.37
2019-01-23T02:10:12.120Z,53.57
2019-01-23T02:12:40.357Z,49.87
2019-01-23T02:15:09.859Z,54.93
2019-01-23T02:17:38.102Z,56.50
2019-01-23T02:20:09.015Z,52.23
2019-01-23T02:22:37.277Z,53.03
2019-01-23T02:25:05.674Z,53.10
2019-01-23T02:27:33.933Z,55.93
2019-01-23T02:30:02.451Z,51.07
2019-01-23T02:32:30.737Z,52.50
2019-01-23T02:34:59.791Z,53.53
2019-01-23T02:37:27.996Z,48.57
2019-01-23T02:39:56.282Z,48.37
2019-01-23T02:42:24.509Z,43.37
2019-01-23T02:44:52.778Z,47.97
2019-01-23T02:47:21.030Z,41.83
2019-01-23T02:49:49.778Z,47.07
2019-01-23T02:52:18.029Z,45.13
2019-01-23T02:54:46.254Z,46.80
2019-01-23T02:57:14.477Z,47.60
2019-01-23T02:59:42.655Z,48.83
2019-01-23T03:02:10.922Z,49.57
2019-01-23T03:04:39.804Z,47.53
2019-01-23T03:07:08.082Z,45.17
2019-01-23T03:09:36.819Z,46.27
2019-01-23T03:12:05.086Z,54.90
2019-01-23T03:14:33.355Z,50.60
2019-01-23T03:17:01.551Z,47.30
2019-01-23T03:19:29.866Z,51.90
2019-01-23T03:21:58.123Z,43.13
2019-01-23T03:24:26.355Z,46.07
2019-01-23T03:26:54.606Z,52.70
2019-01-23T03:29:24.709Z,49.87
2019-01-23T03:31:51.798Z,46.57
2019-01-23T03:34:20.036Z,52.13
2019-01-23T03:36:48.232Z,47.23
2019-01-23T03:39:16.444Z,56.20
2019-01-23T03:41:45.554Z,48.17
2019-01-23T03:44:13.787Z,49.13
2019-01-23T03:46:42.024Z,45.67
2019-01-23T03:49:10.263Z,49.17
2019-01-23T03:51:38.479Z,48.00
2019-01-23T03:54:07.670Z,47.60
2019-01-23T03:56:36.044Z,45.70
2019-01-23T03:59:05.463Z,50.93
2019-01-23T04:01:33.836Z,50.37
2019-01-23T04:24:12.701Z,50.70
2019-01-23T04:26:41.006Z,45.67
2019-01-23T04:29:09.894Z,45.33
2019-01-23T04:31:38.133Z,45.33
2019-01-23T04:34:06.422Z,48.07
2019-01-23T04:36:34.701Z,48.70
2019-01-23T04:39:03.889Z,52.57
2019-01-23T04:41:32.197Z,47.10
2019-01-23T04:44:00.427Z,48.97
2019-01-23T04:46:29.003Z,48.07
2019-01-23T04:48:57.302Z,51.83
2019-01-23T04:51:37.622Z,54.87
2019-01-23T04:54:05.873Z,52.60
2019-01-23T04:56:34.423Z,52.47
2019-01-23T04:59:02.434Z,59.93
2019-01-23T05:01:30.691Z,55.67
2019-01-23T05:03:58.979Z,57.80
2019-01-23T05:06:27.242Z,57.43
2019-01-23T05:08:55.522Z,57.50
2019-01-23T05:11:23.804Z,55.57
2019-01-23T05:13:52.154Z,47.50
2019-01-23T05:16:20.420Z,56.67
2019-01-23T05:18:48.686Z,51.20
2019-01-23T05:21:16.948Z,41.47
2019-01-23T05:23:45.237Z,47.40
2019-01-23T05:26:13.975Z,43.93
2019-01-23T05:28:42.226Z,48.73
2019-01-23T05:31:10.480Z,47.10
2019-01-23T05:33:38.746Z,45.30
2019-01-23T05:36:07.043Z,49.30
2019-01-23T05:38:35.474Z,51.20
2019-01-23T05:41:04.824Z,50.37
2019-01-23T05:43:33.142Z,46.97
2019-01-23T05:46:02.387Z,46.93
2019-01-23T05:48:30.687Z,48.93
2019-01-23T05:50:58.926Z,51.80
2019-01-23T05:53:27.197Z,48.37
2019-01-23T05:55:55.435Z,47.13
2019-01-23T05:58:24.666Z,46.10
2019-01-23T06:00:52.926Z,56.97
2019-01-23T06:03:21.187Z,53.80
2019-01-23T06:05:49.590Z,48.67
2019-01-23T06:08:17.830Z,47.50
2019-01-23T06:10:46.702Z,50.53
2019-01-23T06:13:14.895Z,48.70
2019-01-23T06:15:43.152Z,47.83
2019-01-23T06:18:11.410Z,49.87
2019-01-23T06:20:39.696Z,49.43
2019-01-23T06:23:07.959Z,52.47
2019-01-23T06:25:36.194Z,48.43
2019-01-23T06:28:04.359Z,48.40
2019-01-23T06:30:32.631Z,45.33
2019-01-23T06:33:01.378Z,52.30
2019-01-23T06:35:30.286Z,55.57
2019-01-23T06:37:58.521Z,51.90
2019-01-23T06:40:27.731Z,50.13
2019-01-23T06:42:56.033Z,52.67
2019-01-23T06:45:24.334Z,48.73
2019-01-23T06:47:52.613Z,50.20
2019-01-23T06:50:22.024Z,54.87
2019-01-23T06:52:50.388Z,52.35
2019-01-23T06:55:18.663Z,54.97
2019-01-23T06:57:46.975Z,52.80
2019-01-23T07:00:17.627Z,53.90
2019-01-23T07:02:46.050Z,51.60
2019-01-23T07:05:14.354Z,51.07
2019-01-23T07:07:42.622Z,51.97
2019-01-23T07:10:13.077Z,52.30
2019-01-23T07:12:41.376Z,52.30
2019-01-23T07:15:10.141Z,47.47
2019-01-23T07:17:38.443Z,49.13
2019-01-23T07:20:09.516Z,56.33
2019-01-23T07:22:37.744Z,47.30
2019-01-23T07:25:06.717Z,52.33
2019-01-23T07:27:35.534Z,49.97
2019-01-23T07:30:05.545Z,54.60
2019-01-23T07:32:33.112Z,50.17
2019-01-23T07:35:01.368Z,47.67
2019-01-23T07:37:29.655Z,50.30
2019-01-23T07:39:58.422Z,54.50
2019-01-23T07:42:26.661Z,53.20
2019-01-23T07:44:54.919Z,51.37
2019-01-23T07:47:23.165Z,52.17
2019-01-23T07:49:52.366Z,47.37
2019-01-23T07:52:20.622Z,53.60
2019-01-23T07:54:48.829Z,53.13
2019-01-23T07:57:17.096Z,51.67
2019-01-23T07:59:45.352Z,48.23
2019-01-23T08:02:13.554Z,48.37
2019-01-23T08:04:41.822Z,53.10
2019-01-23T08:07:10.104Z,45.97
2019-01-23T08:09:38.435Z,48.03
2019-01-23T08:12:10.634Z,48.27
2019-01-23T08:14:35.399Z,47.83
2019-01-23T08:17:03.721Z,50.13
2019-01-23T08:19:32.097Z,46.07
2019-01-23T08:22:00.327Z,49.97
2019-01-23T08:24:28.615Z,46.37
2019-01-23T08:26:56.910Z,50.43
2019-01-23T08:29:25.130Z,51.10
2019-01-23T08:31:53.380Z,49.20
2019-01-23T08:34:21.662Z,48.37
2019-01-23T08:36:49.910Z,49.90
2019-01-23T08:39:18.320Z,47.30
2019-01-23T08:41:46.603Z,53.87
2019-01-23T08:44:15.730Z,49.30
2019-01-23T08:46:44.875Z,49.13
2019-01-23T08:49:13.103Z,46.97
2019-01-23T08:51:43.080Z,47.53
2019-01-23T08:54:11.306Z,48.53
2019-01-23T08:56:39.568Z,42.97
2019-01-23T08:59:07.834Z,44.37
2019-01-23T09:01:36.112Z,47.03
2019-01-23T09:04:05.379Z,44.23
2019-01-23T09:06:33.655Z,43.83
2019-01-23T09:09:01.963Z,46.63
2019-01-23T09:11:30.299Z,43.97
2019-01-23T09:15:34.430Z,46.87
2019-01-23T09:18:02.698Z,47.87
2019-01-23T09:20:30.934Z,44.70
2019-01-23T09:22:59.227Z,51.23
2019-01-23T09:25:27.506Z,47.20
2019-01-23T09:27:55.796Z,50.23
2019-01-23T09:30:28.958Z,45.93
2019-01-23T09:33:09.341Z,47.20
2019-01-23T09:35:44.926Z,47.57
2019-01-23T09:40:26.946Z,47.50
2019-01-23T09:43:11.720Z,44.10
2019-01-23T09:46:52.970Z,54.70
2019-01-23T09:49:32.714Z,52.73
2019-01-23T09:52:14.113Z,44.20
2019-01-23T09:54:42.432Z,42.80
2019-01-23T09:57:10.730Z,45.90
2019-01-23T09:59:38.987Z,45.83
2019-01-23T10:02:07.226Z,40.17
2019-01-23T10:04:35.453Z,46.10
2019-01-23T10:07:03.713Z,46.70
2019-01-23T10:09:32.027Z,43.87
2019-01-23T10:12:00.542Z,45.27
2019-01-23T10:14:28.854Z,41.50
2019-01-23T10:16:57.154Z,46.13
2019-01-23T10:19:25.434Z,49.70
2019-01-23T10:21:53.710Z,44.93
2019-01-23T10:24:22.500Z,46.07
2019-01-23T10:26:50.794Z,50.17
2019-01-23T10:29:19.026Z,49.83
2019-01-23T10:31:47.326Z,47.97
2019-01-23T10:34:15.604Z,48.13
2019-01-23T10:36:43.841Z,50.80
2019-01-23T10:39:12.091Z,48.70
2019-01-23T10:41:40.334Z,48.77
2019-01-23T10:44:08.565Z,49.50
2019-01-23T10:46:36.877Z,50.63
2019-01-23T10:49:06.148Z,61.10
2019-01-23T10:51:34.319Z,53.90
2019-01-23T10:54:04.860Z,50.77
2019-01-23T10:56:33.879Z,52.93
2019-01-23T10:59:02.163Z,56.87
2019-01-23T11:01:30.389Z,52.13
2019-01-23T11:03:58.654Z,57.60
2019-01-23T11:06:26.938Z,52.27
2019-01-23T11:08:55.209Z,53.77
2019-01-23T11:11:23.464Z,53.20
2019-01-23T11:13:51.681Z,54.43
2019-01-23T11:16:19.951Z,53.30
2019-01-23T11:18:48.239Z,52.97
2019-01-23T11:21:17.662Z,56.97
2019-01-23T11:23:44.785Z,59.93
2019-01-23T11:26:13.041Z,52.57
2019-01-23T11:28:42.352Z,57.27
2019-01-23T11:31:10.599Z,57.10
2019-01-23T11:33:38.909Z,50.30
2019-01-23T11:36:07.133Z,52.33
2019-01-23T11:38:36.158Z,51.63
2019-01-23T11:41:04.482Z,57.03
2019-01-23T11:43:32.756Z,57.23
2019-01-23T11:46:01.017Z,53.67
2019-01-23T11:48:29.271Z,52.17
2019-01-23T11:50:58.111Z,60.17
2019-01-23T11:53:26.363Z,57.57
2019-01-23T11:55:54.631Z,63.63
2019-01-23T11:58:23.553Z,54.00
2019-01-23T12:00:51.889Z,59.73
2019-01-23T12:03:21.037Z,56.97
2019-01-23T12:05:48.443Z,59.07
2019-01-23T12:08:16.691Z,59.50
2019-01-23T12:10:44.941Z,56.80
2019-01-23T12:13:13.182Z,61.77
2019-01-23T12:15:41.405Z,58.13
2019-01-23T12:18:09.657Z,61.60
2019-01-23T12:20:37.921Z,58.73
2019-01-23T12:23:06.481Z,60.47
2019-01-23T12:25:35.402Z,59.67
2019-01-23T12:28:10.089Z,65.10
2019-01-23T12:30:39.191Z,64.90
2019-01-23T12:33:07.448Z,65.17
2019-01-23T12:35:35.702Z,65.33
2019-01-23T12:38:04.687Z,64.17
2019-01-23T12:40:32.965Z,60.80
2019-01-23T12:43:01.174Z,60.83
2019-01-23T12:45:29.490Z,61.27
2019-01-23T12:47:57.767Z,68.73
2019-01-23T12:50:28.510Z,63.80
2019-01-23T12:52:56.759Z,61.63
2019-01-23T12:55:25.034Z,68.40
2019-01-23T12:57:53.295Z,67.10
2019-01-23T13:00:24.111Z,53.13
2019-01-23T13:02:52.418Z,64.43
2019-01-23T13:05:20.962Z,63.57
2019-01-23T13:07:49.273Z,63.43
2019-01-23T13:10:18.717Z,62.77
2019-01-23T13:12:46.977Z,60.73
2019-01-23T13:15:17.695Z,58.20
2019-01-23T13:17:46.715Z,63.40
2019-01-23T13:20:15.718Z,66.87
2019-01-23T13:22:44.685Z,63.57
2019-01-23T13:25:16.106Z,62.97
2019-01-23T13:27:44.411Z,63.73
2019-01-23T13:30:15.248Z,60.00
2019-01-23T13:32:43.535Z,64.73
2019-01-23T13:35:13.121Z,63.00
2019-01-23T13:37:41.445Z,64.00
2019-01-23T13:40:14.807Z,66.70
2019-01-23T13:42:43.530Z,61.60
2019-01-23T13:45:11.854Z,72.03
2019-01-23T13:47:40.062Z,64.00
2019-01-23T13:50:08.939Z,63.80
2019-01-23T13:52:37.282Z,62.60
2019-01-23T13:55:07.261Z,60.70
2019-01-23T13:57:35.539Z,60.97
2019-01-23T14:00:04.895Z,60.70
2019-01-23T14:02:34.007Z,63.50
2019-01-23T14:05:02.287Z,59.73
2019-01-23T14:07:30.638Z,64.97
2019-01-23T14:09:58.854Z,60.20
2019-01-23T14:12:27.198Z,59.17
2019-01-23T14:14:55.535Z,57.00
2019-01-23T14:17:30.239Z,52.63
2019-01-23T14:19:58.486Z,57.30
2019-01-23T14:22:27.550Z,58.70
2019-01-23T14:24:55.807Z,58.87
2019-01-23T14:27:24.010Z,57.80
2019-01-23T14:29:52.286Z,58.77
2019-01-23T14:32:21.552Z,59.77
2019-01-23T14:34:49.867Z,60.90
2019-01-23T14:37:18.159Z,65.10
2019-01-23T14:39:46.371Z,59.63
2019-01-23T14:42:14.674Z,57.40
2019-01-23T14:44:42.962Z,69.00
2019-01-23T14:47:11.274Z,62.63
2019-01-23T14:49:39.554Z,62.30
2019-01-23T14:52:07.950Z,60.53
2019-01-23T14:54:36.196Z,56.90
2019-01-23T14:57:04.494Z,66.57
2019-01-23T14:59:32.764Z,64.97
2019-01-23T15:02:01.019Z,62.20
2019-01-23T15:04:29.283Z,62.87
2019-01-23T15:06:57.533Z,64.93
2019-01-23T15:09:25.786Z,66.67
2019-01-23T15:11:54.030Z,62.47
2019-01-23T15:14:22.245Z,62.17
2019-01-23T15:16:50.509Z,61.63
2019-01-23T15:19:18.830Z,67.50
2019-01-23T15:21:47.138Z,62.53
2019-01-23T15:24:15.418Z,66.43
2019-01-23T15:26:43.703Z,63.50
2019-01-23T15:29:11.962Z,69.33
2019-01-23T15:31:40.231Z,65.77
2019-01-23T15:34:08.643Z,59.93
2019-01-23T15:36:36.969Z,62.63
2019-01-23T15:39:07.806Z,65.00
2019-01-23T15:41:36.096Z,63.87
2019-01-23T15:44:04.414Z,66.57
2019-01-23T15:46:32.614Z,65.80
2019-01-23T15:49:00.859Z,71.70
2019-01-23T15:51:29.107Z,65.17
2019-01-23T15:53:57.305Z,67.33
2019-01-23T15:56:25.557Z,70.93
2019-01-23T15:58:53.801Z,64.47
2019-01-23T16:01:22.021Z,61.77
2019-01-23T16:03:50.302Z,60.20
2019-01-23T16:06:18.578Z,55.60
2019-01-23T16:08:46.798Z,60.23
2019-01-23T16:11:15.654Z,57.43
2019-01-23T16:13:43.936Z,52.63
2019-01-23T16:16:12.737Z,58.07
2019-01-23T16:18:40.999Z,59.70
2019-01-23T16:21:09.255Z,57.37
2019-01-23T16:23:37.597Z,55.23
2019-01-23T16:26:05.891Z,64.63
2019-01-23T16:28:34.998Z,58.50
2019-01-23T16:31:03.853Z,52.93
2019-01-23T16:33:32.480Z,55.23
2019-01-23T16:36:00.703Z,55.90
2019-01-23T16:38:28.952Z,59.05
2019-01-23T16:40:57.186Z,60.97
2019-01-23T16:43:25.535Z,54.37
2019-01-23T16:45:53.862Z,59.33
2019-01-23T16:48:22.154Z,50.43
2019-01-23T16:50:50.426Z,57.73
2019-01-23T16:53:18.577Z,56.90
2019-01-23T16:55:46.751Z,56.70
2019-01-23T16:58:14.868Z,57.27
2019-01-23T17:00:44.119Z,53.87
2019-01-23T17:03:13.318Z,46.37
2019-01-23T17:05:41.990Z,52.23
2019-01-23T17:08:10.140Z,55.10
2019-01-23T17:10:38.367Z,54.90
2019-01-23T17:13:06.650Z,59.27
2019-01-23T17:15:34.878Z,50.17
2019-01-23T17:18:03.107Z,53.00
2019-01-23T17:20:37.099Z,54.90
2019-01-23T17:23:05.659Z,46.60
2019-01-23T17:25:34.071Z,48.70
2019-01-23T17:28:02.338Z,44.30
2019-01-23T17:30:30.634Z,48.60
2019-01-23T17:32:58.929Z,51.63
2019-01-23T17:35:27.193Z,43.83
2019-01-23T17:37:55.433Z,56.33
2019-01-23T17:40:23.648Z,43.60
2019-01-23T17:42:51.827Z,48.83
2019-01-23T17:45:22.754Z,55.87
2019-01-23T17:47:50.702Z,46.53
2019-01-23T17:50:19.781Z,48.27
2019-01-23T17:52:47.997Z,45.00
2019-01-23T17:55:20.893Z,47.53
2019-01-23T17:57:49.154Z,43.03
2019-01-23T18:00:21.432Z,42.90
2019-01-23T18:02:52.907Z,51.43
2019-01-23T18:05:18.025Z,44.33
2019-01-23T18:07:46.297Z,47.00
2019-01-23T18:10:15.534Z,49.80
2019-01-23T18:12:43.814Z,45.53
2019-01-23T18:15:14.441Z,41.17
2019-01-23T18:17:42.662Z,44.27
2019-01-23T18:20:13.643Z,48.03
2019-01-23T18:22:41.884Z,44.47
2019-01-23T18:25:11.079Z,44.20
2019-01-23T18:27:39.371Z,42.73
2019-01-23T18:30:14.982Z,44.60
2019-01-23T18:32:43.230Z,45.00
2019-01-23T18:35:41.852Z,49.27
2019-01-23T18:38:17.337Z,43.10
2019-01-23T18:43:09.060Z,47.97
2019-01-23T18:45:47.278Z,48.57
2019-01-23T18:48:26.413Z,46.50
2019-01-23T18:51:07.751Z,49.13
2019-01-23T18:53:36.939Z,49.73
2019-01-23T18:56:05.498Z,47.20
2019-01-23T18:58:33.751Z,46.80
2019-01-23T19:01:02.045Z,42.80
2019-01-23T19:03:30.505Z,45.27
2019-01-23T19:05:58.746Z,41.90
2019-01-23T19:08:28.212Z,46.03
2019-01-23T19:10:56.472Z,44.20
2019-01-23T19:13:24.687Z,44.13
2019-01-23T19:15:52.879Z,47.83
2019-01-23T19:18:21.102Z,47.73
2019-01-23T19:20:49.401Z,45.17
2019-01-23T19:23:17.697Z,48.67
2019-01-23T19:25:45.983Z,49.77
2019-01-23T19:28:14.262Z,44.97
2019-01-23T19:30:42.491Z,38.70
2019-01-23T19:33:13.596Z,40.60
2019-01-23T19:35:38.977Z,48.57
2019-01-23T19:38:07.206Z,42.03
2019-01-23T19:40:35.507Z,47.03
2019-01-23T19:43:03.933Z,41.47
2019-01-23T19:45:31.994Z,42.67
2019-01-23T19:48:00.784Z,47.27
2019-01-23T19:50:29.028Z,50.23
2019-01-23T19:52:57.282Z,46.90
2019-01-23T19:55:25.505Z,47.97
2019-01-23T19:57:53.767Z,46.33
2019-01-23T20:00:23.136Z,45.80
2019-01-23T20:02:51.438Z,42.10
2019-01-23T20:05:22.745Z,48.33
2019-01-23T20:07:51.006Z,39.67
2019-01-23T20:10:20.422Z,49.07
2019-01-23T20:12:48.714Z,40.70
2019-01-23T20:15:17.698Z,44.90
2019-01-23T20:17:45.998Z,44.27
2019-01-23T20:20:14.375Z,48.53
2019-01-23T20:22:49.282Z,46.87
2019-01-23T20:25:20.585Z,46.53
2019-01-23T20:27:49.946Z,52.40
2019-01-23T20:30:22.594Z,44.33
2019-01-23T20:32:50.860Z,43.23
2019-01-23T20:35:19.073Z,49.70
2019-01-23T20:37:47.329Z,49.00
2019-01-23T20:40:16.021Z,47.43
2019-01-23T20:42:44.987Z,47.23
2019-01-23T20:45:13.879Z,43.00
2019-01-23T20:47:43.035Z,46.57
2019-01-23T20:50:15.594Z,49.17
2019-01-23T20:52:43.882Z,47.27
2019-01-23T20:55:12.241Z,45.73
2019-01-23T20:57:40.602Z,47.67
2019-01-23T21:00:13.135Z,47.45
2019-01-23T21:02:41.402Z,48.07
2019-01-23T21:05:09.722Z,41.43
2019-01-23T21:07:38.192Z,49.17
2019-01-23T21:10:08.138Z,45.53
2019-01-23T21:12:36.517Z,48.73
2019-01-23T21:15:05.620Z,47.60
2019-01-23T21:17:33.894Z,49.23
2019-01-23T21:20:02.252Z,47.17
2019-01-23T21:22:30.766Z,52.70
2019-01-23T21:24:59.246Z,51.17
2019-01-23T21:27:27.514Z,51.67
2019-01-23T21:29:55.764Z,50.77
2019-01-23T21:32:24.018Z,54.10
2019-01-23T21:34:52.265Z,47.90
2019-01-23T21:37:20.502Z,52.30
2019-01-23T21:39:48.818Z,48.23
2019-01-23T21:42:17.006Z,49.60
2019-01-23T21:44:45.249Z,55.13
2019-01-23T21:47:13.570Z,50.10
2019-01-23T21:49:41.817Z,51.37
2019-01-23T21:52:10.157Z,58.30
2019-01-23T21:54:39.415Z,55.27
2019-01-23T21:57:07.778Z,53.50
2019-01-23T21:59:36.009Z,52.00
2019-01-23T22:02:04.285Z,52.27
2019-01-23T22:04:32.606Z,51.83
2019-01-23T22:07:00.913Z,54.60
2019-01-23T22:09:29.150Z,56.18
2019-01-23T22:11:57.379Z,55.30
2019-01-23T22:14:25.685Z,53.75
2019-01-23T22:16:53.961Z,61.40
2019-01-23T22:19:22.178Z,54.90
2019-01-23T22:21:50.437Z,58.17
2019-01-23T22:24:18.769Z,55.80
2019-01-23T22:26:46.991Z,61.27
2019-01-23T22:29:15.281Z,59.67
2019-01-23T22:31:43.622Z,62.33
2019-01-23T22:34:11.839Z,50.57
2019-01-23T22:36:40.092Z,53.77
2019-01-23T22:39:08.552Z,62.95
2019-01-23T22:41:36.804Z,60.30
2019-01-23T22:44:05.118Z,59.27
2019-01-23T22:46:33.432Z,62.80
2019-01-23T22:49:01.698Z,59.60
2019-01-23T22:51:29.933Z,58.80
2019-01-23T22:53:58.166Z,61.63
2019-01-23T22:56:26.430Z,59.27
2019-01-23T22:58:54.716Z,57.50
2019-01-23T23:01:25.710Z,63.93
2019-01-23T23:03:54.445Z,62.63
2019-01-23T23:06:22.703Z,59.23
2019-01-23T23:08:50.981Z,65.13
2019-01-23T23:11:19.271Z,58.10
2019-01-23T23:13:47.571Z,61.87
2019-01-23T23:16:15.855Z,65.93
2019-01-23T23:18:44.195Z,58.47
2019-01-23T23:21:12.426Z,56.13
2019-01-23T23:23:41.192Z,65.37
2019-01-23T23:26:09.454Z,61.57
2019-01-23T23:28:37.747Z,55.00
2019-01-23T23:31:06.117Z,60.87
2019-01-23T23:33:34.358Z,58.57
2019-01-23T23:36:02.680Z,60.40
2019-01-23T23:38:31.023Z,55.57
2019-01-23T23:40:59.265Z,57.33
2019-01-23T23:43:27.454Z,60.73
2019-01-23T23:45:55.734Z,69.73
2019-01-23T23:48:23.973Z,59.70
2019-01-23T23:50:52.250Z,58.40
2019-01-23T23:53:20.478Z,58.47
2019-01-23T23:55:48.701Z,65.47
2019-01-23T23:58:16.952Z,61.23
